Atlanta, IN (46031)

9:56 AM EDT on August 22, 2014 (GMT -0400)
KINATLAN2 | Change Station
CLOSE
Current Station
Personal Weather Station
Location: Atlanta, IN
Elevation: 866 ft
Nearby Weather Stations

Elev 866 ft 40.19 °N, 86.05 °W | Updated 1 minute ago

Rain
Rain
70.7 °F
Feels Like 70.7 °F
N
1.0
Wind Variable Wind from ESE
Gusts 5.0 mph

Today
High -- | Low -- °F
--% Chance of Precip.
Yesterday
High -- | Low -- °F
Precip. -- in
7:01 AM 8:30 PM
Waning Crescent, 8% visible
Pressure 30.05 in
Visibility 4.0 miles
Clouds Scattered Clouds 3000 ft
Mostly Cloudy 7000 ft
Dew Point 70 °F
Humidity 97%
Rainfall 0.46 in
Snow Depth Not available.
UV 1 out of 12
Pollen 10.40 out of 12
Ozone Good
PM2.5 Moderate
Flu Activity Not available.
METAR KAID 221247Z 12005KT 4SM RA SCT030 BKN070 21/21 A3005

More Conditions Fewer Conditions

Pressure 30.05 in
Visibility 4.0 miles
Clouds Scattered Clouds 3000 ft
Mostly Cloudy 7000 ft
Dew Point 70 °F
Humidity 97%
Rainfall 0.46 in
Snow Depth Not available.
UV 1 out of 12
Pollen 10.40 out of 12
Ozone Good
PM2.5 Moderate
Flu Activity Not available.
METAR KAID 221247Z 12005KT 4SM RA SCT030 BKN070 21/21 A3005

More Conditions Fewer Conditions

10-Day Weather Forecast

Almanac

Astronomy

Aug. 22, 2014 Rise Set
Actual Time 7:01 AM EDT 8:30 PM EDT
Civil Twilight 6:33 AM EDT 8:59 PM EDT
Nautical Twilight 5:58 AM EDT 9:33 PM EDT
Astronomical Twilight 5:22 AM EDT 10:09 PM EDT
Moon 4:23 AM EDT 6:38 PM EDT
Length of Visible Light 14h 25m
Length of Day
13h 28m
Tomorrow will be 2m 27s shorter.
Waning Crescent, 8% of the Moon is Illuminated
Today
Waning Crescent
Aug 25
New
Sep 2
First Quarter
Sep 8
Full
Sep 15
Last Quarter

Today's Extremes

State Highs State Lows

Community

WunderPhotos

Upload Photos

1,746,168 photos uploaded!

Nearby

Air Quality

  Air Quality AQ Index Pollutant
Yesterday Good
PM10
Yesterday Good
OZONE
Current Moderate
PM2.5
Current Good
OZONE
Friday Moderate
PM2.5
Friday Good
OZONE

Snow Depth

Station Depth Elevation
No new snow has been reported.

Earthquake Activity

City Distance Mag. Time & Date
No recent earthquake activity has been reported nearby.
Minimum magnitude displayed is 2.5.

Coastal Water Temperatures

Place Temperature
No Stations Reporting

Nearby Weather Stations